X-preSS Monte Bianco — 9HA3446 — position and weather

sailwx.info

Track history (hours):
 
Tides and Currents Weather Stations Pressure Air Temp Water Temp Dewpoint Dewpoint Depression Visibility Wind Speed Wind Dir Waves Ship Positions

X-preSS Monte Bianco

Last reported at 2017-Sep-21 13:59 UTC. Time now 2017-Sep-23 02:24 UTC.
Position N 39°16' W 009°46'.

Length 130 m; draft 7.9 m.

Type: Cargo ship. MMSI: 229610000.

Date/timePositionNaut miles runAvg speedWind from/ knotsBaromVisibWave heightAir tempDewpointWater temp
2017-Sep-21 13:59N 39°16' W 009°46'510.9
2017-Sep-21 13:30N 39°11' W 009°47'510.9
2017-Sep-21 13:00N 39°05' W 009°49'611.5
2017-Sep-21 12:30N 38°60' W 009°50'611.2
2017-Sep-21 12:00N 38°54' W 009°51'611.1
2017-Sep-21 11:31N 38°48' W 009°51'611.4
2017-Sep-21 11:00N 38°43' W 009°51'510.6
2017-Sep-21 10:30N 38°37' W 009°50'510.5
2017-Sep-21 10:00N 38°32' W 009°48'510.7
2017-Sep-21 09:30N 38°27' W 009°46'511.0
2017-Sep-21 09:00N 38°22' W 009°45'510.9
2017-Sep-21 08:30N 38°17' W 009°43'510.5
2017-Sep-21 07:59N 38°11' W 009°42'510.5
2017-Sep-21 07:29N 38°06' W 009°40'510.5
2017-Sep-21 07:00N 38°01' W 009°39'1610.1
2017-Sep-21 05:26N 37°46' W 009°34'410.3
2017-Sep-21 05:01N 37°41' W 009°33'2010.5
2017-Sep-21 03:07N 37°22' W 009°27'210.1
2017-Sep-21 02:58N 37°21' W 009°27'510.4
2017-Sep-21 02:30N 37°16' W 009°26'610.6
2017-Sep-21 01:59N 37°11' W 009°24'510.5
2017-Sep-21 01:31N 37°06' W 009°23'610.7
2017-Sep-21 00:57N 37°00' W 009°21'510.7
2017-Sep-21 00:30N 36°55' W 009°19'610.4
2017-Sep-20 23:54N 36°50' W 009°15'410.8
2017-Sep-20 23:30N 36°47' W 009°11'510.8
2017-Sep-20 23:00N 36°44' W 009°06'511.0
2017-Sep-20 22:30N 36°42' W 008°60'510.6
2017-Sep-20 22:00N 36°41' W 008°53'510.6
2017-Sep-20 21:30N 36°39' W 008°47'510.7
2017-Sep-20 21:00N 36°37' W 008°41'610.7
2017-Sep-20 20:27N 36°35' W 008°34'510.7
2017-Sep-20 20:00N 36°34' W 008°28'2911.0
2017-Sep-20 17:21N 36°25' W 007°54'411.0
2017-Sep-20 16:59N 36°23' W 007°49'511.0
2017-Sep-20 16:30N 36°22' W 007°42'511.0
2017-Sep-20 16:00N 36°20' W 007°36'611.3
2017-Sep-20 15:26N 36°18' W 007°28'9410.8
2017-Sep-20 06:46N 35°57' W 005°35'3 9.3
2017-Sep-20 06:26N 35°58' W 005°31'  
2017-Sep-17 13:28N 34°44' W 006°56'9810.5
2017-Sep-17 04:05N 35°57' W 005°36'1 8.3
2017-Sep-17 04:00N 35°57' W 005°35'4 8.3
2017-Sep-17 03:30N 35°59' W 005°30'4 8.4
2017-Sep-17 03:01N 36°01' W 005°26'5 9.1
2017-Sep-17 02:30N 36°05' W 005°24'3 0.6
2017-Sep-16 21:25N 36°08' W 005°25'0 0.0
2017-Sep-16 19:58N 36°08' W 005°25'0 0.0
2017-Sep-16 18:31N 36°08' W 005°25'0 0.0
2017-Sep-16 18:25N 36°08' W 005°25'0 0.0
2017-Sep-16 15:57N 36°08' W 005°25'2 3.6
2017-Sep-16 15:29N 36°10' W 005°26'0 0.1
2017-Sep-16 13:26N 36°10' W 005°26'0 0.1
2017-Sep-16 12:59N 36°10' W 005°26'1 1.8
2017-Sep-16 12:22N 36°09' W 005°25'2 5.6
2017-Sep-16 12:00N 36°07' W 005°24'3 6.3
2017-Sep-16 11:30N 36°05' W 005°21'5 8.6
2017-Sep-16 10:52N 36°05' W 005°14'212 8.7
2017-Sep-15 10:28N 37°13' W 001°04'1810.8
2017-Sep-15 08:46N 37°25' W 000°46'310.1
2017-Sep-15 08:28N 37°27' W 000°44'610.6
2017-Sep-15 07:55N 37°31' W 000°38'410.8
2017-Sep-15 07:30N 37°34' W 000°34'510.6
2017-Sep-15 07:00N 37°39' W 000°30'510.7
2017-Sep-15 06:30N 37°43' W 000°26'12310.6
2017-Sep-14 18:54N 39°29' E 000°55'411.0
2017-Sep-14 18:30N 39°33' E 000°57'610.7
2017-Sep-14 17:59N 39°38' E 001°01'510.2
2017-Sep-14 17:30N 39°42' E 001°04'510.2
2017-Sep-14 17:00N 39°46' E 001°07'5 9.9
2017-Sep-14 16:30N 39°51' E 001°10'510.0
2017-Sep-14 16:00N 39°55' E 001°13'510.2
2017-Sep-14 15:30N 39°60' E 001°16'510.0
2017-Sep-14 15:00N 40°04' E 001°19'510.1
2017-Sep-14 14:30N 40°09' E 001°22'510.5
2017-Sep-14 14:00N 40°13' E 001°26'612.1
2017-Sep-14 13:30N 40°19' E 001°29'612.6
2017-Sep-14 13:00N 40°24' E 001°33'612.0
2017-Sep-14 12:30N 40°29' E 001°37'611.9
2017-Sep-14 12:01N 40°35' E 001°41'611.7
2017-Sep-14 11:30N 40°40' E 001°45'611.7
2017-Sep-14 11:00N 40°45' E 001°48'611.8
2017-Sep-14 10:30N 40°50' E 001°52'611.9
2017-Sep-14 09:58N 40°56' E 001°56'611.9
2017-Sep-14 09:29N 41°01' E 001°59'611.9
2017-Sep-14 09:00N 41°06' E 002°03'16 1.4
2017-Sep-13 20:55N 41°21' E 002°10'0 0.1
2017-Sep-13 20:27N 41°21' E 002°10'2 5.1
2017-Sep-13 20:00N 41°19' E 002°10'1 0.5
2017-Sep-13 17:34N 41°20' E 002°11'0 0.0
2017-Sep-13 17:28N 41°20' E 002°11'0 0.1
2017-Sep-13 16:02N 41°20' E 002°11'0 2.2
2017-Sep-13 15:59N 41°20' E 002°11'1010.8
2017-Sep-13 15:04N 41°11' E 002°06'212.9
2017-Sep-13 14:56N 41°09' E 002°04'612.7
2017-Sep-13 14:30N 41°05' E 001°60'713.1
2017-Sep-13 14:00N 40°60' E 001°55'712.9
2017-Sep-13 13:29N 40°55' E 001°49'613.0
2017-Sep-13 13:00N 40°50' E 001°43'913.2
2017-Sep-13 12:19N 40°43' E 001°36'513.1
2017-Sep-13 11:56N 40°39' E 001°32'612.9
2017-Sep-13 11:30N 40°35' E 001°26'612.8
2017-Sep-13 11:00N 40°31' E 001°20'612.5
2017-Sep-13 10:30N 40°27' E 001°14'612.8
2017-Sep-13 10:00N 40°23' E 001°07'  
Track history (hours):
 
Tides and Currents Weather Stations Pressure Air Temp Water Temp Dewpoint Dewpoint Depression Visibility Wind Speed Wind Dir Waves Ship Positions

X-preSS Monte Bianco

Last reported at 2017-Sep-21 13:59 UTC. Time now 2017-Sep-23 02:24 UTC.
Position N 39°16' W 009°46'.

Length 130 m; draft 7.9 m.

Type: Cargo ship. MMSI: 229610000.

Date/timePositionNaut miles runAvg speedWind from/ knotsBaromVisibWave heightAir tempDewpointWater temp
2017-Sep-21 13:59N 39°16' W 009°46'510.9
2017-Sep-21 13:30N 39°11' W 009°47'510.9
2017-Sep-21 13:00N 39°05' W 009°49'611.5
2017-Sep-21 12:30N 38°60' W 009°50'611.2
2017-Sep-21 12:00N 38°54' W 009°51'611.1
2017-Sep-21 11:31N 38°48' W 009°51'611.4
2017-Sep-21 11:00N 38°43' W 009°51'510.6
2017-Sep-21 10:30N 38°37' W 009°50'510.5
2017-Sep-21 10:00N 38°32' W 009°48'510.7
2017-Sep-21 09:30N 38°27' W 009°46'511.0
2017-Sep-21 09:00N 38°22' W 009°45'510.9
2017-Sep-21 08:30N 38°17' W 009°43'510.5
2017-Sep-21 07:59N 38°11' W 009°42'510.5
2017-Sep-21 07:29N 38°06' W 009°40'510.5
2017-Sep-21 07:00N 38°01' W 009°39'1610.1
2017-Sep-21 05:26N 37°46' W 009°34'410.3
2017-Sep-21 05:01N 37°41' W 009°33'2010.5
2017-Sep-21 03:07N 37°22' W 009°27'210.1
2017-Sep-21 02:58N 37°21' W 009°27'510.4
2017-Sep-21 02:30N 37°16' W 009°26'610.6
2017-Sep-21 01:59N 37°11' W 009°24'510.5
2017-Sep-21 01:31N 37°06' W 009°23'610.7
2017-Sep-21 00:57N 37°00' W 009°21'510.7
2017-Sep-21 00:30N 36°55' W 009°19'610.4
2017-Sep-20 23:54N 36°50' W 009°15'410.8
2017-Sep-20 23:30N 36°47' W 009°11'510.8
2017-Sep-20 23:00N 36°44' W 009°06'511.0
2017-Sep-20 22:30N 36°42' W 008°60'510.6
2017-Sep-20 22:00N 36°41' W 008°53'510.6
2017-Sep-20 21:30N 36°39' W 008°47'510.7
2017-Sep-20 21:00N 36°37' W 008°41'610.7
2017-Sep-20 20:27N 36°35' W 008°34'510.7
2017-Sep-20 20:00N 36°34' W 008°28'2911.0
2017-Sep-20 17:21N 36°25' W 007°54'411.0
2017-Sep-20 16:59N 36°23' W 007°49'511.0
2017-Sep-20 16:30N 36°22' W 007°42'511.0
2017-Sep-20 16:00N 36°20' W 007°36'611.3
2017-Sep-20 15:26N 36°18' W 007°28'9410.8
2017-Sep-20 06:46N 35°57' W 005°35'3 9.3
2017-Sep-20 06:26N 35°58' W 005°31'  
2017-Sep-17 13:28N 34°44' W 006°56'9810.5
2017-Sep-17 04:05N 35°57' W 005°36'1 8.3
2017-Sep-17 04:00N 35°57' W 005°35'4 8.3
2017-Sep-17 03:30N 35°59' W 005°30'4 8.4
2017-Sep-17 03:01N 36°01' W 005°26'5 9.1
2017-Sep-17 02:30N 36°05' W 005°24'3 0.6
2017-Sep-16 21:25N 36°08' W 005°25'0 0.0
2017-Sep-16 19:58N 36°08' W 005°25'0 0.0
2017-Sep-16 18:31N 36°08' W 005°25'0 0.0
2017-Sep-16 18:25N 36°08' W 005°25'0 0.0
2017-Sep-16 15:57N 36°08' W 005°25'2 3.6
2017-Sep-16 15:29N 36°10' W 005°26'0 0.1
2017-Sep-16 13:26N 36°10' W 005°26'0 0.1
2017-Sep-16 12:59N 36°10' W 005°26'1 1.8
2017-Sep-16 12:22N 36°09' W 005°25'2 5.6
2017-Sep-16 12:00N 36°07' W 005°24'3 6.3
2017-Sep-16 11:30N 36°05' W 005°21'5 8.6
2017-Sep-16 10:52N 36°05' W 005°14'212 8.7
2017-Sep-15 10:28N 37°13' W 001°04'1810.8
2017-Sep-15 08:46N 37°25' W 000°46'310.1
2017-Sep-15 08:28N 37°27' W 000°44'610.6
2017-Sep-15 07:55N 37°31' W 000°38'410.8
2017-Sep-15 07:30N 37°34' W 000°34'510.6
2017-Sep-15 07:00N 37°39' W 000°30'510.7
2017-Sep-15 06:30N 37°43' W 000°26'12310.6
2017-Sep-14 18:54N 39°29' E 000°55'411.0
2017-Sep-14 18:30N 39°33' E 000°57'610.7
2017-Sep-14 17:59N 39°38' E 001°01'510.2
2017-Sep-14 17:30N 39°42' E 001°04'510.2
2017-Sep-14 17:00N 39°46' E 001°07'5 9.9
2017-Sep-14 16:30N 39°51' E 001°10'510.0
2017-Sep-14 16:00N 39°55' E 001°13'510.2
2017-Sep-14 15:30N 39°60' E 001°16'510.0
2017-Sep-14 15:00N 40°04' E 001°19'510.1
2017-Sep-14 14:30N 40°09' E 001°22'510.5
2017-Sep-14 14:00N 40°13' E 001°26'612.1
2017-Sep-14 13:30N 40°19' E 001°29'612.6
2017-Sep-14 13:00N 40°24' E 001°33'612.0
2017-Sep-14 12:30N 40°29' E 001°37'611.9
2017-Sep-14 12:01N 40°35' E 001°41'611.7
2017-Sep-14 11:30N 40°40' E 001°45'611.7
2017-Sep-14 11:00N 40°45' E 001°48'611.8
2017-Sep-14 10:30N 40°50' E 001°52'611.9
2017-Sep-14 09:58N 40°56' E 001°56'611.9
2017-Sep-14 09:29N 41°01' E 001°59'611.9
2017-Sep-14 09:00N 41°06' E 002°03'16 1.4
2017-Sep-13 20:55N 41°21' E 002°10'0 0.1
2017-Sep-13 20:27N 41°21' E 002°10'2 5.1
2017-Sep-13 20:00N 41°19' E 002°10'1 0.5
2017-Sep-13 17:34N 41°20' E 002°11'0 0.0
2017-Sep-13 17:28N 41°20' E 002°11'0 0.1
2017-Sep-13 16:02N 41°20' E 002°11'0 2.2
2017-Sep-13 15:59N 41°20' E 002°11'1010.8
2017-Sep-13 15:04N 41°11' E 002°06'212.9
2017-Sep-13 14:56N 41°09' E 002°04'612.7
2017-Sep-13 14:30N 41°05' E 001°60'713.1
2017-Sep-13 14:00N 40°60' E 001°55'712.9
2017-Sep-13 13:29N 40°55' E 001°49'613.0
2017-Sep-13 13:00N 40°50' E 001°43'913.2
2017-Sep-13 12:19N 40°43' E 001°36'513.1
2017-Sep-13 11:56N 40°39' E 001°32'612.9
2017-Sep-13 11:30N 40°35' E 001°26'612.8
2017-Sep-13 11:00N 40°31' E 001°20'612.5
2017-Sep-13 10:30N 40°27' E 001°14'612.8
2017-Sep-13 10:00N 40°23' E 001°07'  

Dump ship's entire track history